sensor_id;sensor_type;location;lat;lon;timestamp;P1;durP1;ratioP1;P2;durP2;ratioP2
25073;SDS011;13066;52.042;5.648;2024-01-16T00:01:41;11.85;;;5.28;;
25073;SDS011;13066;52.042;5.648;2024-01-16T00:04:09;8.38;;;3.83;;
25073;SDS011;13066;52.042;5.648;2024-01-16T00:06:38;8.27;;;3.03;;
25073;SDS011;13066;52.042;5.648;2024-01-16T00:09:06;6.38;;;2.67;;
25073;SDS011;13066;52.042;5.648;2024-01-16T00:11:39;8.15;;;2.67;;
25073;SDS011;13066;52.042;5.648;2024-01-16T00:14:07;8.35;;;2.25;;
25073;SDS011;13066;52.042;5.648;2024-01-16T00:16:42;8.57;;;2.63;;
25073;SDS011;13066;52.042;5.648;2024-01-16T00:19:10;7.00;;;2.08;;
25073;SDS011;13066;52.042;5.648;2024-01-16T00:21:39;8.02;;;2.15;;
25073;SDS011;13066;52.042;5.648;2024-01-16T00:24:07;7.88;;;2.28;;
25073;SDS011;13066;52.042;5.648;2024-01-16T00:26:35;9.23;;;2.45;;
25073;SDS011;13066;52.042;5.648;2024-01-16T00:29:03;8.55;;;2.17;;
25073;SDS011;13066;52.042;5.648;2024-01-16T00:31:32;6.65;;;2.70;;
25073;SDS011;13066;52.042;5.648;2024-01-16T00:34:01;13.00;;;4.47;;
25073;SDS011;13066;52.042;5.648;2024-01-16T00:36:30;9.20;;;2.97;;
25073;SDS011;13066;52.042;5.648;2024-01-16T00:38:58;10.18;;;3.33;;
25073;SDS011;13066;52.042;5.648;2024-01-16T00:41:26;7.57;;;2.30;;
25073;SDS011;13066;52.042;5.648;2024-01-16T00:43:54;8.70;;;2.20;;
25073;SDS011;13066;52.042;5.648;2024-01-16T00:46:23;6.55;;;2.20;;
25073;SDS011;13066;52.042;5.648;2024-01-16T00:48:51;7.50;;;2.03;;
25073;SDS011;13066;52.042;5.648;2024-01-16T00:51:20;12.85;;;5.15;;
25073;SDS011;13066;52.042;5.648;2024-01-16T00:53:49;19.70;;;10.45;;
25073;SDS011;13066;52.042;5.648;2024-01-16T00:56:17;22.38;;;11.93;;
25073;SDS011;13066;52.042;5.648;2024-01-16T00:58:45;20.27;;;10.75;;
25073;SDS011;13066;52.042;5.648;2024-01-16T01:01:13;18.35;;;8.57;;
25073;SDS011;13066;52.042;5.648;2024-01-16T01:03:42;16.98;;;7.15;;
25073;SDS011;13066;52.042;5.648;2024-01-16T01:06:10;17.00;;;8.75;;
25073;SDS011;13066;52.042;5.648;2024-01-16T01:08:39;24.77;;;12.40;;
25073;SDS011;13066;52.042;5.648;2024-01-16T01:11:07;20.92;;;10.60;;
25073;SDS011;13066;52.042;5.648;2024-01-16T01:13:36;13.05;;;6.95;;
25073;SDS011;13066;52.042;5.648;2024-01-16T01:16:04;15.70;;;5.57;;
25073;SDS011;13066;52.042;5.648;2024-01-16T01:18:32;8.13;;;3.42;;
25073;SDS011;13066;52.042;5.648;2024-01-16T01:21:01;7.07;;;2.60;;
25073;SDS011;13066;52.042;5.648;2024-01-16T01:23:29;7.72;;;2.40;;
25073;SDS011;13066;52.042;5.648;2024-01-16T01:25:59;5.20;;;1.95;;
25073;SDS011;13066;52.042;5.648;2024-01-16T01:28:27;8.40;;;2.17;;
25073;SDS011;13066;52.042;5.648;2024-01-16T01:30:56;11.07;;;2.15;;
25073;SDS011;13066;52.042;5.648;2024-01-16T01:41:25;10.13;;;2.00;;
25073;SDS011;13066;52.042;5.648;2024-01-16T01:43:53;7.88;;;2.20;;
25073;SDS011;13066;52.042;5.648;2024-01-16T01:46:21;5.70;;;1.80;;
25073;SDS011;13066;52.042;5.648;2024-01-16T01:48:49;5.07;;;1.67;;
25073;SDS011;13066;52.042;5.648;2024-01-16T01:51:18;7.50;;;1.98;;
25073;SDS011;13066;52.042;5.648;2024-01-16T01:53:47;6.70;;;1.70;;
25073;SDS011;13066;52.042;5.648;2024-01-16T01:56:17;5.22;;;1.65;;
25073;SDS011;13066;52.042;5.648;2024-01-16T01:58:48;10.63;;;2.35;;
25073;SDS011;13066;52.042;5.648;2024-01-16T02:01:17;6.07;;;1.90;;
25073;SDS011;13066;52.042;5.648;2024-01-16T02:03:47;11.18;;;2.67;;
25073;SDS011;13066;52.042;5.648;2024-01-16T02:06:17;10.35;;;2.70;;
25073;SDS011;13066;52.042;5.648;2024-01-16T02:08:46;11.23;;;2.40;;
25073;SDS011;13066;52.042;5.648;2024-01-16T02:11:14;6.90;;;2.42;;
25073;SDS011;13066;52.042;5.648;2024-01-16T02:13:42;5.63;;;2.15;;
25073;SDS011;13066;52.042;5.648;2024-01-16T02:16:21;8.18;;;2.83;;
25073;SDS011;13066;52.042;5.648;2024-01-16T02:18:49;7.32;;;2.63;;
25073;SDS011;13066;52.042;5.648;2024-01-16T02:21:20;6.32;;;2.67;;
25073;SDS011;13066;52.042;5.648;2024-01-16T02:23:50;12.35;;;6.18;;
25073;SDS011;13066;52.042;5.648;2024-01-16T02:26:19;19.08;;;8.77;;
25073;SDS011;13066;52.042;5.648;2024-01-16T02:28:48;15.70;;;7.78;;
25073;SDS011;13066;52.042;5.648;2024-01-16T02:31:16;15.10;;;5.57;;
25073;SDS011;13066;52.042;5.648;2024-01-16T02:33:44;7.03;;;2.80;;
25073;SDS011;13066;52.042;5.648;2024-01-16T02:36:12;8.50;;;2.90;;
25073;SDS011;13066;52.042;5.648;2024-01-16T02:38:40;7.60;;;2.35;;
25073;SDS011;13066;52.042;5.648;2024-01-16T02:41:14;6.32;;;2.42;;
25073;SDS011;13066;52.042;5.648;2024-01-16T02:43:43;5.43;;;2.30;;
25073;SDS011;13066;52.042;5.648;2024-01-16T02:46:12;8.38;;;2.38;;
25073;SDS011;13066;52.042;5.648;2024-01-16T02:48:40;7.15;;;2.08;;
25073;SDS011;13066;52.042;5.648;2024-01-16T02:51:09;6.18;;;2.22;;
25073;SDS011;13066;52.042;5.648;2024-01-16T02:53:37;7.85;;;2.33;;
25073;SDS011;13066;52.042;5.648;2024-01-16T02:56:05;8.60;;;2.20;;
25073;SDS011;13066;52.042;5.648;2024-01-16T02:58:35;8.23;;;2.03;;
25073;SDS011;13066;52.042;5.648;2024-01-16T03:01:03;8.50;;;1.95;;
25073;SDS011;13066;52.042;5.648;2024-01-16T03:03:31;7.90;;;2.22;;
25073;SDS011;13066;52.042;5.648;2024-01-16T03:06:00;13.27;;;6.30;;
25073;SDS011;13066;52.042;5.648;2024-01-16T03:08:28;15.80;;;7.53;;
25073;SDS011;13066;52.042;5.648;2024-01-16T03:10:56;12.90;;;6.20;;
25073;SDS011;13066;52.042;5.648;2024-01-16T03:13:24;13.27;;;4.85;;
25073;SDS011;13066;52.042;5.648;2024-01-16T03:15:53;11.77;;;4.68;;
25073;SDS011;13066;52.042;5.648;2024-01-16T03:18:21;6.60;;;3.28;;
25073;SDS011;13066;52.042;5.648;2024-01-16T03:20:49;6.15;;;2.95;;
25073;SDS011;13066;52.042;5.648;2024-01-16T03:23:17;8.63;;;2.63;;
25073;SDS011;13066;52.042;5.648;2024-01-16T03:25:46;4.43;;;2.08;;
25073;SDS011;13066;52.042;5.648;2024-01-16T03:28:13;3.88;;;1.83;;
25073;SDS011;13066;52.042;5.648;2024-01-16T03:30:41;7.10;;;2.05;;
25073;SDS011;13066;52.042;5.648;2024-01-16T03:33:11;4.88;;;1.98;;
25073;SDS011;13066;52.042;5.648;2024-01-16T03:35:40;7.32;;;2.28;;
25073;SDS011;13066;52.042;5.648;2024-01-16T03:38:08;5.25;;;2.38;;
25073;SDS011;13066;52.042;5.648;2024-01-16T03:40:36;6.05;;;2.00;;
25073;SDS011;13066;52.042;5.648;2024-01-16T03:43:04;4.60;;;2.22;;
25073;SDS011;13066;52.042;5.648;2024-01-16T03:45:32;4.68;;;2.13;;
25073;SDS011;13066;52.042;5.648;2024-01-16T03:48:01;6.53;;;2.25;;
25073;SDS011;13066;52.042;5.648;2024-01-16T03:50:32;5.30;;;2.38;;
25073;SDS011;13066;52.042;5.648;2024-01-16T03:53:00;5.10;;;1.90;;
25073;SDS011;13066;52.042;5.648;2024-01-16T03:55:29;6.68;;;2.38;;
25073;SDS011;13066;52.042;5.648;2024-01-16T03:57:57;5.40;;;2.10;;
25073;SDS011;13066;52.042;5.648;2024-01-16T04:00:25;8.25;;;3.20;;
25073;SDS011;13066;52.042;5.648;2024-01-16T04:02:53;14.18;;;6.45;;
25073;SDS011;13066;52.042;5.648;2024-01-16T04:05:21;19.58;;;9.70;;
25073;SDS011;13066;52.042;5.648;2024-01-16T04:07:51;18.90;;;10.40;;
25073;SDS011;13066;52.042;5.648;2024-01-16T04:10:19;15.27;;;8.57;;
25073;SDS011;13066;52.042;5.648;2024-01-16T04:12:47;16.10;;;7.97;;
25073;SDS011;13066;52.042;5.648;2024-01-16T04:15:15;11.35;;;6.57;;
25073;SDS011;13066;52.042;5.648;2024-01-16T04:17:48;13.43;;;6.55;;
25073;SDS011;13066;52.042;5.648;2024-01-16T04:20:16;13.32;;;6.88;;
25073;SDS011;13066;52.042;5.648;2024-01-16T04:22:45;16.20;;;8.68;;
25073;SDS011;13066;52.042;5.648;2024-01-16T04:25:14;19.17;;;9.85;;
25073;SDS011;13066;52.042;5.648;2024-01-16T04:27:42;18.38;;;10.52;;
25073;SDS011;13066;52.042;5.648;2024-01-16T04:30:11;16.27;;;8.68;;
25073;SDS011;13066;52.042;5.648;2024-01-16T04:32:40;12.27;;;6.15;;
25073;SDS011;13066;52.042;5.648;2024-01-16T04:35:08;10.95;;;4.72;;
25073;SDS011;13066;52.042;5.648;2024-01-16T04:37:37;8.52;;;3.63;;
25073;SDS011;13066;52.042;5.648;2024-01-16T04:40:05;9.07;;;3.40;;
25073;SDS011;13066;52.042;5.648;2024-01-16T04:42:35;7.43;;;2.50;;
25073;SDS011;13066;52.042;5.648;2024-01-16T04:45:03;8.30;;;2.70;;
25073;SDS011;13066;52.042;5.648;2024-01-16T04:47:32;4.68;;;2.35;;
25073;SDS011;13066;52.042;5.648;2024-01-16T04:50:00;7.57;;;2.17;;
25073;SDS011;13066;52.042;5.648;2024-01-16T04:52:30;5.63;;;2.30;;
25073;SDS011;13066;52.042;5.648;2024-01-16T04:54:58;4.88;;;2.58;;
25073;SDS011;13066;52.042;5.648;2024-01-16T04:57:26;5.32;;;2.03;;
25073;SDS011;13066;52.042;5.648;2024-01-16T04:59:56;5.78;;;2.15;;
25073;SDS011;13066;52.042;5.648;2024-01-16T05:02:25;4.55;;;2.28;;
25073;SDS011;13066;52.042;5.648;2024-01-16T05:04:53;7.95;;;2.50;;
25073;SDS011;13066;52.042;5.648;2024-01-16T05:07:23;4.95;;;2.15;;
25073;SDS011;13066;52.042;5.648;2024-01-16T05:09:51;6.32;;;2.40;;
25073;SDS011;13066;52.042;5.648;2024-01-16T05:12:20;4.25;;;1.95;;
25073;SDS011;13066;52.042;5.648;2024-01-16T05:14:49;4.80;;;2.33;;
25073;SDS011;13066;52.042;5.648;2024-01-16T05:17:18;6.10;;;2.33;;
25073;SDS011;13066;52.042;5.648;2024-01-16T05:19:46;6.80;;;2.60;;
25073;SDS011;13066;52.042;5.648;2024-01-16T05:22:14;5.28;;;2.28;;
25073;SDS011;13066;52.042;5.648;2024-01-16T05:24:42;4.95;;;2.33;;
25073;SDS011;13066;52.042;5.648;2024-01-16T05:27:11;5.50;;;2.63;;
25073;SDS011;13066;52.042;5.648;2024-01-16T05:29:40;4.47;;;2.20;;
25073;SDS011;13066;52.042;5.648;2024-01-16T05:32:10;4.47;;;2.10;;
25073;SDS011;13066;52.042;5.648;2024-01-16T05:34:40;5.60;;;2.53;;
25073;SDS011;13066;52.042;5.648;2024-01-16T05:37:08;5.03;;;2.35;;
25073;SDS011;13066;52.042;5.648;2024-01-16T05:39:37;4.95;;;2.55;;
25073;SDS011;13066;52.042;5.648;2024-01-16T05:42:05;4.30;;;2.05;;
25073;SDS011;13066;52.042;5.648;2024-01-16T05:44:33;9.10;;;2.30;;
25073;SDS011;13066;52.042;5.648;2024-01-16T05:47:01;4.32;;;2.22;;
25073;SDS011;13066;52.042;5.648;2024-01-16T05:49:30;5.55;;;2.17;;
25073;SDS011;13066;52.042;5.648;2024-01-16T05:51:59;5.85;;;2.35;;
25073;SDS011;13066;52.042;5.648;2024-01-16T05:54:27;7.13;;;2.30;;
25073;SDS011;13066;52.042;5.648;2024-01-16T05:56:55;6.18;;;2.13;;
25073;SDS011;13066;52.042;5.648;2024-01-16T05:59:23;5.25;;;2.53;;
25073;SDS011;13066;52.042;5.648;2024-01-16T06:01:51;7.07;;;2.25;;
25073;SDS011;13066;52.042;5.648;2024-01-16T06:04:19;4.68;;;2.22;;
25073;SDS011;13066;52.042;5.648;2024-01-16T06:06:47;7.72;;;2.38;;
25073;SDS011;13066;52.042;5.648;2024-01-16T06:09:17;4.75;;;2.35;;
25073;SDS011;13066;52.042;5.648;2024-01-16T06:11:45;5.80;;;2.00;;
25073;SDS011;13066;52.042;5.648;2024-01-16T06:14:14;7.57;;;2.35;;
25073;SDS011;13066;52.042;5.648;2024-01-16T06:19:17;7.13;;;2.30;;
25073;SDS011;13066;52.042;5.648;2024-01-16T06:21:45;5.72;;;2.17;;
25073;SDS011;13066;52.042;5.648;2024-01-16T06:24:13;6.53;;;2.65;;
25073;SDS011;13066;52.042;5.648;2024-01-16T06:26:42;6.45;;;2.58;;
25073;SDS011;13066;52.042;5.648;2024-01-16T06:29:10;6.78;;;2.22;;
25073;SDS011;13066;52.042;5.648;2024-01-16T06:31:54;7.53;;;2.65;;
25073;SDS011;13066;52.042;5.648;2024-01-16T06:34:22;7.80;;;2.90;;
25073;SDS011;13066;52.042;5.648;2024-01-16T06:36:50;8.10;;;3.25;;
25073;SDS011;13066;52.042;5.648;2024-01-16T06:39:18;9.23;;;3.42;;
25073;SDS011;13066;52.042;5.648;2024-01-16T06:41:48;10.32;;;3.30;;
25073;SDS011;13066;52.042;5.648;2024-01-16T06:44:16;8.70;;;3.50;;
25073;SDS011;13066;52.042;5.648;2024-01-16T06:46:44;13.13;;;4.43;;
25073;SDS011;13066;52.042;5.648;2024-01-16T06:49:12;7.05;;;3.60;;
25073;SDS011;13066;52.042;5.648;2024-01-16T06:51:40;9.85;;;4.20;;
25073;SDS011;13066;52.042;5.648;2024-01-16T06:54:08;8.93;;;4.40;;
25073;SDS011;13066;52.042;5.648;2024-01-16T06:56:36;7.10;;;4.47;;
25073;SDS011;13066;52.042;5.648;2024-01-16T06:59:05;9.30;;;4.63;;
25073;SDS011;13066;52.042;5.648;2024-01-16T07:01:37;9.80;;;4.97;;
25073;SDS011;13066;52.042;5.648;2024-01-16T07:04:05;8.57;;;4.45;;
25073;SDS011;13066;52.042;5.648;2024-01-16T07:06:33;9.93;;;4.50;;
25073;SDS011;13066;52.042;5.648;2024-01-16T07:09:01;12.70;;;5.18;;
25073;SDS011;13066;52.042;5.648;2024-01-16T07:11:32;9.60;;;4.45;;
25073;SDS011;13066;52.042;5.648;2024-01-16T07:14:00;8.32;;;4.30;;
25073;SDS011;13066;52.042;5.648;2024-01-16T07:16:29;10.18;;;4.00;;
25073;SDS011;13066;52.042;5.648;2024-01-16T07:18:57;9.38;;;4.45;;
25073;SDS011;13066;52.042;5.648;2024-01-16T07:21:26;9.18;;;4.15;;
25073;SDS011;13066;52.042;5.648;2024-01-16T07:23:54;10.05;;;4.55;;
25073;SDS011;13066;52.042;5.648;2024-01-16T07:26:23;11.23;;;4.85;;
25073;SDS011;13066;52.042;5.648;2024-01-16T07:28:51;9.93;;;4.20;;
25073;SDS011;13066;52.042;5.648;2024-01-16T07:31:19;8.98;;;3.92;;
25073;SDS011;13066;52.042;5.648;2024-01-16T07:33:48;9.00;;;3.50;;
25073;SDS011;13066;52.042;5.648;2024-01-16T07:36:17;9.13;;;3.50;;
25073;SDS011;13066;52.042;5.648;2024-01-16T07:38:45;7.25;;;3.70;;
25073;SDS011;13066;52.042;5.648;2024-01-16T07:41:13;8.40;;;4.65;;
25073;SDS011;13066;52.042;5.648;2024-01-16T07:43:41;6.60;;;3.75;;
25073;SDS011;13066;52.042;5.648;2024-01-16T07:46:12;8.35;;;3.85;;
25073;SDS011;13066;52.042;5.648;2024-01-16T07:48:40;9.77;;;4.25;;
25073;SDS011;13066;52.042;5.648;2024-01-16T07:51:09;8.13;;;4.32;;
25073;SDS011;13066;52.042;5.648;2024-01-16T07:53:37;10.88;;;4.60;;
25073;SDS011;13066;52.042;5.648;2024-01-16T07:56:05;9.40;;;5.05;;
25073;SDS011;13066;52.042;5.648;2024-01-16T07:58:34;9.23;;;4.60;;
25073;SDS011;13066;52.042;5.648;2024-01-16T08:01:03;11.90;;;5.35;;
25073;SDS011;13066;52.042;5.648;2024-01-16T08:03:31;9.80;;;4.70;;
25073;SDS011;13066;52.042;5.648;2024-01-16T08:05:59;12.95;;;4.97;;
25073;SDS011;13066;52.042;5.648;2024-01-16T08:08:28;9.13;;;4.88;;
25073;SDS011;13066;52.042;5.648;2024-01-16T08:10:58;11.32;;;5.47;;
25073;SDS011;13066;52.042;5.648;2024-01-16T08:13:26;10.60;;;5.25;;
25073;SDS011;13066;52.042;5.648;2024-01-16T08:15:55;12.05;;;6.25;;
25073;SDS011;13066;52.042;5.648;2024-01-16T08:18:23;11.30;;;6.07;;
25073;SDS011;13066;52.042;5.648;2024-01-16T08:20:51;7.68;;;5.00;;
25073;SDS011;13066;52.042;5.648;2024-01-16T08:23:19;10.05;;;5.80;;
25073;SDS011;13066;52.042;5.648;2024-01-16T08:25:49;11.45;;;5.60;;
25073;SDS011;13066;52.042;5.648;2024-01-16T08:28:18;7.43;;;4.90;;
25073;SDS011;13066;52.042;5.648;2024-01-16T08:30:49;9.55;;;5.25;;
25073;SDS011;13066;52.042;5.648;2024-01-16T08:33:17;11.23;;;5.13;;
25073;SDS011;13066;52.042;5.648;2024-01-16T08:35:56;11.20;;;5.15;;
25073;SDS011;13066;52.042;5.648;2024-01-16T08:38:24;11.93;;;5.20;;
25073;SDS011;13066;52.042;5.648;2024-01-16T08:40:54;12.68;;;5.63;;
25073;SDS011;13066;52.042;5.648;2024-01-16T08:43:22;11.93;;;5.85;;
25073;SDS011;13066;52.042;5.648;2024-01-16T08:45:50;14.68;;;5.55;;
25073;SDS011;13066;52.042;5.648;2024-01-16T08:48:18;11.98;;;5.32;;
25073;SDS011;13066;52.042;5.648;2024-01-16T08:50:46;12.60;;;5.72;;
25073;SDS011;13066;52.042;5.648;2024-01-16T08:53:14;13.68;;;5.80;;
25073;SDS011;13066;52.042;5.648;2024-01-16T08:55:42;12.75;;;5.55;;
25073;SDS011;13066;52.042;5.648;2024-01-16T08:58:12;13.77;;;5.25;;
25073;SDS011;13066;52.042;5.648;2024-01-16T09:00:40;13.32;;;5.07;;
25073;SDS011;13066;52.042;5.648;2024-01-16T09:03:08;11.90;;;5.07;;
25073;SDS011;13066;52.042;5.648;2024-01-16T09:05:36;10.80;;;4.78;;
25073;SDS011;13066;52.042;5.648;2024-01-16T09:08:06;11.43;;;4.82;;
25073;SDS011;13066;52.042;5.648;2024-01-16T09:10:38;10.05;;;5.28;;
25073;SDS011;13066;52.042;5.648;2024-01-16T09:13:06;9.02;;;4.63;;
25073;SDS011;13066;52.042;5.648;2024-01-16T09:15:36;8.57;;;4.70;;
25073;SDS011;13066;52.042;5.648;2024-01-16T09:18:04;13.07;;;5.25;;
25073;SDS011;13066;52.042;5.648;2024-01-16T09:20:33;8.05;;;4.88;;
25073;SDS011;13066;52.042;5.648;2024-01-16T09:23:01;11.82;;;4.85;;
25073;SDS011;13066;52.042;5.648;2024-01-16T09:25:29;13.20;;;5.07;;
25073;SDS011;13066;52.042;5.648;2024-01-16T09:27:57;12.65;;;4.88;;
25073;SDS011;13066;52.042;5.648;2024-01-16T09:30:25;10.73;;;4.45;;
25073;SDS011;13066;52.042;5.648;2024-01-16T09:32:55;13.80;;;4.88;;
25073;SDS011;13066;52.042;5.648;2024-01-16T09:35:23;10.23;;;5.20;;
25073;SDS011;13066;52.042;5.648;2024-01-16T09:37:51;12.85;;;5.85;;
25073;SDS011;13066;52.042;5.648;2024-01-16T09:40:19;12.32;;;5.25;;
25073;SDS011;13066;52.042;5.648;2024-01-16T09:42:48;11.85;;;5.10;;
25073;SDS011;13066;52.042;5.648;2024-01-16T09:45:19;9.90;;;4.70;;
25073;SDS011;13066;52.042;5.648;2024-01-16T09:47:49;11.15;;;4.35;;
25073;SDS011;13066;52.042;5.648;2024-01-16T09:50:19;12.18;;;4.43;;
25073;SDS011;13066;52.042;5.648;2024-01-16T09:52:48;12.82;;;5.53;;
25073;SDS011;13066;52.042;5.648;2024-01-16T09:55:16;12.07;;;5.10;;
25073;SDS011;13066;52.042;5.648;2024-01-16T09:57:45;13.75;;;5.00;;
25073;SDS011;13066;52.042;5.648;2024-01-16T10:00:13;10.13;;;4.85;;
25073;SDS011;13066;52.042;5.648;2024-01-16T10:02:43;10.55;;;4.20;;
25073;SDS011;13066;52.042;5.648;2024-01-16T10:05:11;9.38;;;5.15;;
25073;SDS011;13066;52.042;5.648;2024-01-16T10:07:41;9.30;;;4.70;;
25073;SDS011;13066;52.042;5.648;2024-01-16T10:10:11;10.98;;;4.57;;
25073;SDS011;13066;52.042;5.648;2024-01-16T10:12:41;12.73;;;4.72;;
25073;SDS011;13066;52.042;5.648;2024-01-16T10:15:10;13.18;;;4.45;;
25073;SDS011;13066;52.042;5.648;2024-01-16T10:17:39;11.85;;;4.25;;
25073;SDS011;13066;52.042;5.648;2024-01-16T10:20:08;11.05;;;5.68;;
25073;SDS011;13066;52.042;5.648;2024-01-16T10:22:42;11.10;;;5.07;;
25073;SDS011;13066;52.042;5.648;2024-01-16T10:25:20;10.10;;;5.03;;
25073;SDS011;13066;52.042;5.648;2024-01-16T10:27:49;12.23;;;4.75;;
25073;SDS011;13066;52.042;5.648;2024-01-16T10:30:20;11.02;;;4.80;;
25073;SDS011;13066;52.042;5.648;2024-01-16T10:32:49;8.35;;;4.10;;
25073;SDS011;13066;52.042;5.648;2024-01-16T10:35:17;11.65;;;4.28;;
25073;SDS011;13066;52.042;5.648;2024-01-16T10:37:47;8.40;;;4.32;;
25073;SDS011;13066;52.042;5.648;2024-01-16T10:40:17;9.52;;;4.85;;
25073;SDS011;13066;52.042;5.648;2024-01-16T10:42:56;10.67;;;5.13;;
25073;SDS011;13066;52.042;5.648;2024-01-16T10:45:25;9.82;;;5.38;;
25073;SDS011;13066;52.042;5.648;2024-01-16T10:48:00;12.20;;;5.90;;
25073;SDS011;13066;52.042;5.648;2024-01-16T10:50:28;13.07;;;4.82;;
25073;SDS011;13066;52.042;5.648;2024-01-16T10:52:59;13.88;;;5.38;;
25073;SDS011;13066;52.042;5.648;2024-01-16T10:55:27;11.40;;;4.13;;
25073;SDS011;13066;52.042;5.648;2024-01-16T10:57:56;10.50;;;4.80;;
25073;SDS011;13066;52.042;5.648;2024-01-16T11:00:25;13.40;;;4.63;;
25073;SDS011;13066;52.042;5.648;2024-01-16T11:02:59;9.00;;;4.40;;
25073;SDS011;13066;52.042;5.648;2024-01-16T11:05:28;10.50;;;5.05;;
25073;SDS011;13066;52.042;5.648;2024-01-16T11:08:01;10.48;;;5.03;;
25073;SDS011;13066;52.042;5.648;2024-01-16T11:10:30;12.95;;;5.18;;
25073;SDS011;13066;52.042;5.648;2024-01-16T11:13:00;10.05;;;4.35;;
25073;SDS011;13066;52.042;5.648;2024-01-16T11:15:29;7.82;;;4.22;;
25073;SDS011;13066;52.042;5.648;2024-01-16T11:17:58;7.88;;;4.57;;
25073;SDS011;13066;52.042;5.648;2024-01-16T11:20:27;7.40;;;3.65;;
25073;SDS011;13066;52.042;5.648;2024-01-16T11:23:17;10.48;;;4.50;;
25073;SDS011;13066;52.042;5.648;2024-01-16T11:25:45;11.63;;;4.80;;
25073;SDS011;13066;52.042;5.648;2024-01-16T11:28:13;11.52;;;4.75;;
25073;SDS011;13066;52.042;5.648;2024-01-16T11:30:42;10.82;;;4.45;;
25073;SDS011;13066;52.042;5.648;2024-01-16T11:39:27;11.88;;;4.38;;
25073;SDS011;13066;52.042;5.648;2024-01-16T11:41:56;9.07;;;4.43;;
25073;SDS011;13066;52.042;5.648;2024-01-16T11:44:45;9.45;;;4.38;;
25073;SDS011;13066;52.042;5.648;2024-01-16T11:47:15;10.45;;;4.30;;
25073;SDS011;13066;52.042;5.648;2024-01-16T11:49:45;8.13;;;3.85;;
25073;SDS011;13066;52.042;5.648;2024-01-16T11:52:14;9.60;;;4.15;;
25073;SDS011;13066;52.042;5.648;2024-01-16T11:54:43;5.57;;;3.45;;
25073;SDS011;13066;52.042;5.648;2024-01-16T11:57:25;6.88;;;3.85;;
25073;SDS011;13066;52.042;5.648;2024-01-16T11:59:58;7.40;;;3.35;;
25073;SDS011;13066;52.042;5.648;2024-01-16T12:02:48;7.18;;;3.63;;
25073;SDS011;13066;52.042;5.648;2024-01-16T12:05:18;9.65;;;3.75;;
25073;SDS011;13066;52.042;5.648;2024-01-16T12:07:47;10.85;;;4.00;;
25073;SDS011;13066;52.042;5.648;2024-01-16T12:10:19;9.70;;;3.92;;
25073;SDS011;13066;52.042;5.648;2024-01-16T12:12:48;8.35;;;3.80;;
25073;SDS011;13066;52.042;5.648;2024-01-16T12:15:18;9.25;;;3.72;;
25073;SDS011;13066;52.042;5.648;2024-01-16T12:17:57;7.63;;;4.00;;
25073;SDS011;13066;52.042;5.648;2024-01-16T12:20:26;8.68;;;3.67;;
25073;SDS011;13066;52.042;5.648;2024-01-16T12:22:57;9.45;;;4.50;;
25073;SDS011;13066;52.042;5.648;2024-01-16T12:25:27;10.10;;;4.90;;
25073;SDS011;13066;52.042;5.648;2024-01-16T12:28:16;10.75;;;5.10;;
25073;SDS011;13066;52.042;5.648;2024-01-16T12:30:51;9.90;;;4.60;;
25073;SDS011;13066;52.042;5.648;2024-01-16T12:33:21;10.15;;;4.80;;
25073;SDS011;13066;52.042;5.648;2024-01-16T12:35:50;7.95;;;4.35;;
25073;SDS011;13066;52.042;5.648;2024-01-16T12:38:18;8.88;;;4.03;;
25073;SDS011;13066;52.042;5.648;2024-01-16T12:40:48;11.10;;;4.40;;
25073;SDS011;13066;52.042;5.648;2024-01-16T12:43:17;10.05;;;4.60;;
25073;SDS011;13066;52.042;5.648;2024-01-16T12:45:46;8.23;;;4.65;;
25073;SDS011;13066;52.042;5.648;2024-01-16T12:48:14;11.65;;;4.45;;
25073;SDS011;13066;52.042;5.648;2024-01-16T12:50:42;8.32;;;4.13;;
25073;SDS011;13066;52.042;5.648;2024-01-16T12:53:11;10.70;;;4.22;;
25073;SDS011;13066;52.042;5.648;2024-01-16T12:55:39;9.13;;;4.38;;
25073;SDS011;13066;52.042;5.648;2024-01-16T12:58:13;6.20;;;3.72;;
25073;SDS011;13066;52.042;5.648;2024-01-16T13:00:42;9.85;;;4.60;;
25073;SDS011;13066;52.042;5.648;2024-01-16T13:03:14;7.85;;;4.13;;
25073;SDS011;13066;52.042;5.648;2024-01-16T13:05:44;9.52;;;4.40;;
25073;SDS011;13066;52.042;5.648;2024-01-16T13:08:17;11.23;;;4.82;;
25073;SDS011;13066;52.042;5.648;2024-01-16T13:10:46;11.48;;;3.95;;
25073;SDS011;13066;52.042;5.648;2024-01-16T13:13:16;8.85;;;4.25;;
25073;SDS011;13066;52.042;5.648;2024-01-16T13:15:45;9.20;;;4.15;;
25073;SDS011;13066;52.042;5.648;2024-01-16T13:18:19;7.82;;;3.70;;
25073;SDS011;13066;52.042;5.648;2024-01-16T13:20:49;12.57;;;5.38;;
25073;SDS011;13066;52.042;5.648;2024-01-16T13:23:17;8.20;;;4.65;;
25073;SDS011;13066;52.042;5.648;2024-01-16T13:25:45;11.60;;;4.28;;
25073;SDS011;13066;52.042;5.648;2024-01-16T13:28:17;7.85;;;3.65;;
25073;SDS011;13066;52.042;5.648;2024-01-16T13:30:48;7.47;;;3.28;;
25073;SDS011;13066;52.042;5.648;2024-01-16T13:33:16;5.28;;;3.20;;
25073;SDS011;13066;52.042;5.648;2024-01-16T13:35:45;9.07;;;3.65;;
25073;SDS011;13066;52.042;5.648;2024-01-16T13:38:14;9.98;;;3.60;;
25073;SDS011;13066;52.042;5.648;2024-01-16T13:40:43;8.07;;;3.25;;
25073;SDS011;13066;52.042;5.648;2024-01-16T13:43:11;8.05;;;3.85;;
25073;SDS011;13066;52.042;5.648;2024-01-16T13:45:40;9.80;;;4.00;;
25073;SDS011;13066;52.042;5.648;2024-01-16T13:48:09;9.00;;;4.13;;
25073;SDS011;13066;52.042;5.648;2024-01-16T13:50:37;7.32;;;3.28;;
25073;SDS011;13066;52.042;5.648;2024-01-16T13:53:05;10.05;;;3.50;;
25073;SDS011;13066;52.042;5.648;2024-01-16T13:55:34;6.57;;;3.30;;
25073;SDS011;13066;52.042;5.648;2024-01-16T13:58:03;8.88;;;3.58;;
25073;SDS011;13066;52.042;5.648;2024-01-16T14:00:31;9.48;;;3.53;;
25073;SDS011;13066;52.042;5.648;2024-01-16T14:03:00;7.20;;;3.17;;
25073;SDS011;13066;52.042;5.648;2024-01-16T14:05:30;10.27;;;3.70;;
25073;SDS011;13066;52.042;5.648;2024-01-16T14:07:58;6.72;;;3.67;;
25073;SDS011;13066;52.042;5.648;2024-01-16T14:10:26;8.07;;;3.42;;
25073;SDS011;13066;52.042;5.648;2024-01-16T14:12:54;8.73;;;3.88;;
25073;SDS011;13066;52.042;5.648;2024-01-16T14:15:22;9.02;;;4.18;;
25073;SDS011;13066;52.042;5.648;2024-01-16T14:17:51;8.25;;;4.07;;
25073;SDS011;13066;52.042;5.648;2024-01-16T14:20:22;8.85;;;3.60;;
25073;SDS011;13066;52.042;5.648;2024-01-16T14:22:54;5.95;;;3.47;;
25073;SDS011;13066;52.042;5.648;2024-01-16T14:25:22;7.45;;;3.65;;
25073;SDS011;13066;52.042;5.648;2024-01-16T14:27:55;7.35;;;3.75;;
25073;SDS011;13066;52.042;5.648;2024-01-16T14:30:26;7.43;;;3.00;;
25073;SDS011;13066;52.042;5.648;2024-01-16T14:32:54;6.95;;;3.35;;
25073;SDS011;13066;52.042;5.648;2024-01-16T14:35:24;8.65;;;4.20;;
25073;SDS011;13066;52.042;5.648;2024-01-16T14:37:52;8.40;;;4.20;;
25073;SDS011;13066;52.042;5.648;2024-01-16T14:40:21;8.45;;;3.92;;
25073;SDS011;13066;52.042;5.648;2024-01-16T14:42:52;10.23;;;4.10;;
25073;SDS011;13066;52.042;5.648;2024-01-16T14:45:20;7.30;;;3.65;;
25073;SDS011;13066;52.042;5.648;2024-01-16T14:47:49;10.05;;;4.20;;
25073;SDS011;13066;52.042;5.648;2024-01-16T14:50:18;6.80;;;3.58;;
25073;SDS011;13066;52.042;5.648;2024-01-16T14:52:49;8.63;;;4.00;;
25073;SDS011;13066;52.042;5.648;2024-01-16T14:55:18;5.80;;;3.97;;
25073;SDS011;13066;52.042;5.648;2024-01-16T14:57:47;10.77;;;5.28;;
25073;SDS011;13066;52.042;5.648;2024-01-16T15:00:19;9.25;;;4.50;;
25073;SDS011;13066;52.042;5.648;2024-01-16T15:02:50;8.13;;;3.75;;
25073;SDS011;13066;52.042;5.648;2024-01-16T15:05:18;7.80;;;4.00;;
25073;SDS011;13066;52.042;5.648;2024-01-16T15:07:48;10.23;;;4.10;;
25073;SDS011;13066;52.042;5.648;2024-01-16T15:10:18;9.88;;;3.75;;
25073;SDS011;13066;52.042;5.648;2024-01-16T15:12:46;7.97;;;4.13;;